Flight Track Log - Related Links

Times and Time Zones

All times are in EDT time to prevent confusion due to time zone crossing. See the SVA1485 flight status page for this flight to view local times or setup timezone preferences in your user account.

Time Position Orientation Groundspeed Altitude Reporting Facility
EDT Latitude Longitude Course Direction KTS MPH feet Rate Location/Type
Sat 10:59:00 AM 26.2426 43.8120 225° Southwest  Level Estimated
Sat 11:00:00 AM 26.1766 43.7411 224° Southwest  Level Estimated
Sat 11:01:00 AM 26.1106 43.6703 224° Southwest  Level Estimated
Sat 11:02:00 AM 26.0445 43.5996 224° Southwest  Level Estimated
Sat 11:03:00 AM 25.9784 43.5289 224° Southwest  Level Estimated
Sat 11:04:00 AM 25.9123 43.4583 224° Southwest  Level Estimated
Sat 11:05:00 AM 25.8461 43.3878 224° Southwest  Level Estimated
Sat 11:06:00 AM 25.7799 43.3174 224° Southwest  Level Estimated
Sat 11:07:00 AM 25.7137 43.2470 224° Southwest  Level Estimated
Sat 11:08:00 AM 25.6474 43.1768 224° Southwest  Level Estimated
Sat 11:09:00 AM 25.5811 43.1066 224° Southwest  Level Estimated
Sat 11:10:00 AM 25.5148 43.0365 224° Southwest  Level Estimated
Sat 11:11:00 AM 25.4484 42.9664 224° Southwest  Level Estimated
Sat 11:12:00 AM 25.3820 42.8965 224° Southwest  Level Estimated
Sat 11:13:00 AM 25.3156 42.8266 224° Southwest  Level Estimated
Sat 11:14:00 AM 25.2491 42.7568 224° Southwest  Level Estimated
Sat 11:15:00 AM 25.1826 42.6870 224° Southwest  Level Estimated
Sat 11:16:00 AM 25.1161 42.6174 223° Southwest  Level Estimated
Sat 11:17:00 AM 25.0495 42.5478 223° Southwest  Level Estimated
Sat 11:18:00 AM 24.9829 42.4783 223° Southwest  Level Estimated
Sat 11:19:00 AM 24.9163 42.4089 223° Southwest  Level Estimated
Sat 11:20:00 AM 24.8496 42.3395 223° Southwest  Level Estimated
Sat 11:21:00 AM 24.7830 42.2702 223° Southwest  Level Estimated
Sat 11:22:00 AM 24.7162 42.2010 223° Southwest  Level Estimated
Sat 11:23:00 AM 24.6495 42.1319 223° Southwest  Level Estimated
Sat 11:24:00 AM 24.5827 42.0629 223° Southwest  Level Estimated
Sat 11:25:00 AM 24.5159 41.9939 223° Southwest  Level Estimated
Sat 11:26:00 AM 24.4490 41.9250 223° Southwest  Level Estimated
Sat 11:27:00 AM 24.3821 41.8561 223° Southwest  Level Estimated
Sat 11:28:00 AM 24.3152 41.7874 223° Southwest  Level Estimated
Sat 11:29:00 AM 24.2483 41.7187 223° Southwest  Level Estimated
Sat 11:30:00 AM 24.1813 41.6501 223° Southwest  Level Estimated
Sat 11:31:00 AM 24.1143 41.5815 223° Southwest  Level Estimated
Sat 11:32:00 AM 24.0473 41.5130 223° Southwest  Level Estimated
Sat 11:33:00 AM 23.9802 41.4446 223° Southwest  Level Estimated
Sat 11:34:00 AM 23.9131 41.3763 223° Southwest  Level Estimated
Sat 11:35:00 AM 23.8460 41.3080 223° Southwest  Level Estimated
Sat 11:36:00 AM 23.7788 41.2399 223° Southwest  Level Estimated
Sat 11:37:00 AM 23.7116 41.1717 223° Southwest  Level Estimated
Sat 11:38:00 AM 23.6444 41.1037 223° Southwest  Level Estimated
Sat 11:39:00 AM 23.5772 41.0357 223° Southwest  Level Estimated
Sat 11:40:00 AM 23.5099 40.9678 223° Southwest  Level Estimated
Sat 11:41:00 AM 23.4426 40.9000 223° Southwest  Level Estimated
Sat 11:42:00 AM 23.3752 40.8322 223° Southwest  Level Estimated
Sat 11:43:00 AM 23.3079 40.7645 223° Southwest  Level Estimated
Sat 11:44:00 AM 23.2405 40.6969 223° Southwest  Level Estimated
Sat 11:45:00 AM 23.1731 40.6293 223° Southwest  Level Estimated
Sat 11:46:00 AM 23.1056 40.5618 223° Southwest  Level Estimated
Sat 11:47:00 AM 23.0381 40.4944 223° Southwest  Level Estimated
Sat 11:48:00 AM 22.9706 40.4270 223° Southwest  Level Estimated
Sat 11:49:00 AM 22.9031 40.3597 223° Southwest  Level Estimated
Sat 11:50:00 AM 22.8355 40.2925 223° Southwest  Level Estimated
Sat 11:51:00 AM 22.7679 40.2253 223° Southwest  Level Estimated
Sat 11:52:00 AM 22.7003 40.1582 222° Southwest  Level Estimated
Sat 11:53:00 AM 22.6327 40.0912 222° Southwest  Level Estimated
Sat 11:54:00 AM 22.5650 40.0242 222° Southwest  Level Estimated
Sat 11:55:00 AM 22.4973 39.9573 222° Southwest  Level Estimated
Sat 11:56:00 AM 22.4296 39.8905 222° Southwest  Level Estimated
Sat 11:57:00 AM 22.3618 39.8237 222° Southwest  Level Estimated
Sat 11:58:00 AM 22.2940 39.7570 222° Southwest  Level Estimated
Sat 11:59:00 AM 22.2262 39.6904 222° Southwest  Level Estimated
Sat 12:00:00 PM 22.1584 39.6238 222° Southwest  Level Estimated
Sat 12:01:00 PM 22.0905 39.5573 222° Southwest  Level Estimated
Sat 12:02:00 PM 22.0226 39.4909 222° Southwest  Level Estimated
Sat 12:03:00 PM 21.9547 39.4245 222° Southwest  Level Estimated
Sat 12:04:00 PM 21.8867 39.3582 222° Southwest  Level Estimated
Sat 12:05:00 PM 21.8188 39.2919 222° Southwest  Level Estimated
Sat 12:06:00 PM 21.7508 39.2257 222° Southwest  Level Estimated
Sat 12:07:00 PM 21.6827 39.1596 222° Southwest  Level Estimated
Sat 12:08:00 PM 21.6796 39.1565 222° Southwest  Level Estimated
Sat 12:09:00 PM 21.6796 39.1565 317° Northwest  Level Estimated
Sat 12:10:00 PM 21.6796 39.1565 317° Northwest  Level Estimated
Sat 12:11:00 PM 21.6796 39.1565 317° Northwest  Level Estimated
Sat 12:12:00 PM 21.6796 39.1565 317° Northwest  Level Estimated
Sat 12:13:00 PM 21.6796 39.1565 317° Northwest  Level Estimated
Sat 12:14:00 PM 21.6796 39.1565 317° Northwest  Level Estimated
Sat 12:15:00 PM 21.6796 39.1565 317° Northwest  Level Estimated
Sat 12:16:00 PM 21.6796 39.1565 317° Northwest  Level Estimated
Sat 12:17:00 PM 21.6796 39.1565 317° Northwest  Level Estimated
Sat 12:18:00 PM 21.6796 39.1565 317° Northwest  Level Estimated
Sat 12:19:00 PM 21.6796 39.1565 317° Northwest  Level Estimated
Sat 12:20:00 PM 21.6796 39.1565 317° Northwest  Level Estimated

Login

Don't have an account? Register now (free) for customized features, flight alerts, and more!